createdAt,value
2022-12-25T00:04:27.004Z,6.50
2022-12-25T00:07:00.863Z,6.50
2022-12-25T00:09:35.831Z,6.40
2022-12-25T00:12:18.656Z,6.40
2022-12-25T00:14:50.325Z,6.40
2022-12-25T00:17:22.975Z,6.40
2022-12-25T00:19:57.608Z,6.40
2022-12-25T00:22:45.392Z,6.40
2022-12-25T00:25:22.132Z,6.30
2022-12-25T00:28:13.301Z,6.40
2022-12-25T00:31:13.090Z,6.40
2022-12-25T00:36:33.696Z,6.40
2022-12-25T00:39:21.108Z,6.40
2022-12-25T00:42:08.333Z,6.40
2022-12-25T00:44:40.801Z,6.30
2022-12-25T00:47:27.002Z,6.40
2022-12-25T00:50:00.023Z,6.30
2022-12-25T00:52:37.703Z,6.30
2022-12-25T00:55:11.792Z,6.20
2022-12-25T00:58:04.131Z,6.30
2022-12-25T01:00:35.177Z,6.30
2022-12-25T01:06:18.160Z,6.20
2022-12-25T01:09:05.798Z,6.10
2022-12-25T01:11:45.104Z,6.00
2022-12-25T01:14:22.773Z,6.00
2022-12-25T01:17:12.968Z,6.00
2022-12-25T01:19:50.944Z,6.00
2022-12-25T01:22:35.037Z,6.00
2022-12-25T01:25:25.874Z,6.00
2022-12-25T01:28:02.790Z,6.10
2022-12-25T01:30:37.769Z,6.10
2022-12-25T01:36:13.879Z,6.20
2022-12-25T01:38:42.582Z,6.10
2022-12-25T01:41:30.429Z,6.10
2022-12-25T01:44:13.430Z,6.10
2022-12-25T01:46:49.111Z,6.10
2022-12-25T01:49:44.435Z,6.10
2022-12-25T01:52:24.457Z,5.90
2022-12-25T01:55:07.009Z,5.90
2022-12-25T01:57:40.439Z,5.90
2022-12-25T02:00:37.216Z,5.90
2022-12-25T02:03:23.359Z,5.80
2022-12-25T02:05:57.247Z,5.90
2022-12-25T02:08:30.586Z,5.80
2022-12-25T02:11:16.578Z,5.80
2022-12-25T02:14:22.664Z,5.80
2022-12-25T02:17:13.854Z,5.70
2022-12-25T02:23:15.214Z,5.50
2022-12-25T02:25:57.064Z,5.50
2022-12-25T02:28:34.360Z,5.50
2022-12-25T02:31:25.431Z,5.50
2022-12-25T02:34:08.089Z,5.50
2022-12-25T02:36:46.977Z,5.50
2022-12-25T02:39:52.555Z,5.50
2022-12-25T02:46:17.478Z,5.60
2022-12-25T02:49:20.120Z,5.60
2022-12-25T02:52:15.350Z,5.70
2022-12-25T02:55:09.976Z,5.70
2022-12-25T02:58:00.432Z,5.80
2022-12-25T03:01:05.221Z,5.70
2022-12-25T03:03:54.380Z,5.80
2022-12-25T03:07:06.473Z,5.70
2022-12-25T03:10:10.347Z,5.70
2022-12-25T03:12:46.851Z,5.80
2022-12-25T03:15:33.488Z,5.80
2022-12-25T03:21:18.739Z,5.80
2022-12-25T03:24:22.722Z,5.70
2022-12-25T03:27:19.911Z,5.70
2022-12-25T03:33:36.623Z,5.90
2022-12-25T03:36:05.281Z,6.00
2022-12-25T03:39:19.348Z,5.90
2022-12-25T03:42:14.761Z,5.90
2022-12-25T03:45:07.329Z,5.90
2022-12-25T03:48:05.045Z,5.90
2022-12-25T03:50:56.663Z,5.80
2022-12-25T03:53:47.969Z,5.90
2022-12-25T03:56:39.319Z,5.90
2022-12-25T03:59:27.623Z,5.70
2022-12-25T04:02:20.191Z,5.80
2022-12-25T04:05:22.234Z,5.80
2022-12-25T04:08:22.275Z,5.80
2022-12-25T04:11:15.355Z,6.00
2022-12-25T04:14:07.845Z,5.70
2022-12-25T04:16:57.899Z,5.60
2022-12-25T04:19:44.633Z,5.60
2022-12-25T04:22:35.471Z,5.70
2022-12-25T04:25:34.907Z,5.60
2022-12-25T04:28:22.434Z,5.60
2022-12-25T04:31:12.076Z,5.60
2022-12-25T04:34:01.934Z,5.60
2022-12-25T04:42:44.608Z,5.50
2022-12-25T04:45:44.939Z,5.60
2022-12-25T04:48:30.286Z,5.50
2022-12-25T04:54:29.207Z,5.60
2022-12-25T04:56:57.257Z,5.60
2022-12-25T04:59:25.494Z,5.60
2022-12-25T05:01:53.711Z,5.60
2022-12-25T05:04:22.000Z,5.60
2022-12-25T05:06:50.065Z,5.60
2022-12-25T05:09:18.028Z,5.60
2022-12-25T05:11:47.648Z,5.60
2022-12-25T05:14:16.361Z,5.60
2022-12-25T05:16:44.907Z,5.60
2022-12-25T05:19:13.266Z,5.60
2022-12-25T05:21:41.328Z,5.60
2022-12-25T05:24:09.630Z,5.60
2022-12-25T05:26:38.121Z,5.60
2022-12-25T05:29:08.739Z,5.70
2022-12-25T05:34:57.688Z,5.70
2022-12-25T05:37:47.484Z,5.70
2022-12-25T05:40:21.480Z,5.70
2022-12-25T05:42:53.222Z,5.70
2022-12-25T05:48:42.477Z,5.70
2022-12-25T05:51:27.160Z,5.70
2022-12-25T05:54:11.484Z,5.80
2022-12-25T05:56:55.049Z,5.80
2022-12-25T05:59:47.040Z,5.80
2022-12-25T06:02:27.933Z,5.90
2022-12-25T06:05:09.484Z,5.90
2022-12-25T06:07:41.677Z,6.00
2022-12-25T06:10:23.502Z,6.00
2022-12-25T06:15:46.632Z,6.00
2022-12-25T06:18:17.391Z,6.00
2022-12-25T06:20:50.846Z,5.90
2022-12-25T06:23:27.860Z,5.90
2022-12-25T06:25:57.159Z,5.90
2022-12-25T06:28:40.846Z,5.90
2022-12-25T06:31:26.213Z,5.80
2022-12-25T06:34:01.205Z,5.80
2022-12-25T06:36:31.241Z,5.90
2022-12-25T06:39:09.773Z,5.80
2022-12-25T06:41:44.400Z,5.80
2022-12-25T06:44:18.735Z,5.80
2022-12-25T06:46:50.926Z,5.90
2022-12-25T06:49:43.302Z,5.90
2022-12-25T06:52:24.020Z,6.00
2022-12-25T06:54:54.864Z,6.00
2022-12-25T06:57:28.508Z,6.00
2022-12-25T06:59:58.995Z,6.00
2022-12-25T07:02:31.293Z,6.10
2022-12-25T07:05:04.390Z,6.20
2022-12-25T07:07:38.098Z,6.10
2022-12-25T07:10:11.762Z,6.10
2022-12-25T07:12:52.934Z,6.10
2022-12-25T07:15:33.104Z,6.10
2022-12-25T07:18:03.388Z,6.10
2022-12-25T07:20:43.811Z,6.20
2022-12-25T07:23:18.875Z,6.20
2022-12-25T07:26:00.259Z,6.20
2022-12-25T07:28:44.471Z,6.20
2022-12-25T07:31:18.866Z,6.20
2022-12-25T07:33:56.108Z,6.30
2022-12-25T07:36:31.871Z,6.30
2022-12-25T07:39:01.023Z,6.40
2022-12-25T07:41:32.060Z,6.50
2022-12-25T07:44:02.048Z,6.40
2022-12-25T07:46:36.204Z,6.50
2022-12-25T07:49:05.475Z,6.50
2022-12-25T07:52:06.651Z,6.60
2022-12-25T07:54:48.352Z,6.50
2022-12-25T07:57:35.700Z,6.60
2022-12-25T08:00:10.632Z,6.70
2022-12-25T08:05:23.783Z,6.70
2022-12-25T08:07:58.714Z,6.80
2022-12-25T08:10:36.275Z,6.80
2022-12-25T08:13:08.972Z,6.90
2022-12-25T08:15:46.208Z,7.10
2022-12-25T08:18:34.711Z,7.30
2022-12-25T08:21:08.254Z,7.20
2022-12-25T08:23:49.267Z,7.30
2022-12-25T08:26:32.114Z,7.40
2022-12-25T08:29:10.319Z,7.40
2022-12-25T08:31:45.679Z,7.50
2022-12-25T08:37:06.851Z,7.60
2022-12-25T08:39:53.478Z,7.70
2022-12-25T08:42:33.964Z,7.70
2022-12-25T08:45:06.383Z,7.80
2022-12-25T08:47:41.045Z,7.90
2022-12-25T08:50:12.891Z,7.90
2022-12-25T08:52:42.940Z,8.00
2022-12-25T08:58:24.619Z,8.10
2022-12-25T09:00:55.568Z,8.30
2022-12-25T09:03:26.719Z,8.50
2022-12-25T09:05:59.979Z,8.70
2022-12-25T09:08:48.136Z,8.80
2022-12-25T09:11:33.955Z,8.90
2022-12-25T09:14:15.525Z,9.10
2022-12-25T09:19:50.790Z,9.10
2022-12-25T09:22:22.236Z,9.10
2022-12-25T09:25:01.473Z,9.10
2022-12-25T09:27:34.192Z,9.20
2022-12-25T09:33:05.374Z,9.30
2022-12-25T09:35:40.408Z,9.40
2022-12-25T09:38:24.809Z,9.50
2022-12-25T09:41:04.406Z,9.50
2022-12-25T09:43:54.179Z,9.50
2022-12-25T09:46:38.336Z,9.40
2022-12-25T09:49:31.683Z,9.20
2022-12-25T09:52:02.782Z,9.40
2022-12-25T09:54:42.311Z,9.30
2022-12-25T09:57:15.430Z,9.40
2022-12-25T09:59:54.000Z,9.60
2022-12-25T10:05:35.264Z,9.70
2022-12-25T10:08:17.533Z,9.60
2022-12-25T10:10:59.619Z,9.60
2022-12-25T10:13:52.095Z,9.60
2022-12-25T10:16:27.922Z,9.60
2022-12-25T10:19:18.498Z,9.60
2022-12-25T10:21:54.609Z,9.60
2022-12-25T10:24:34.340Z,9.60
2022-12-25T10:27:27.805Z,9.60
2022-12-25T10:30:06.399Z,9.70
2022-12-25T10:35:29.781Z,9.90
2022-12-25T10:38:17.016Z,10.00
2022-12-25T10:41:02.406Z,10.00
2022-12-25T10:43:43.003Z,10.10
2022-12-25T10:46:18.159Z,10.30
2022-12-25T10:49:01.757Z,10.40
2022-12-25T10:51:35.785Z,10.50
2022-12-25T10:56:57.055Z,10.40
2022-12-25T10:59:46.849Z,10.30
2022-12-25T11:02:33.389Z,10.30
2022-12-25T11:05:08.460Z,10.20
2022-12-25T11:07:54.724Z,10.20
2022-12-25T11:10:40.968Z,10.20
2022-12-25T11:13:24.645Z,10.20
2022-12-25T11:16:20.541Z,10.20
2022-12-25T11:19:19.791Z,10.20
2022-12-25T11:24:47.404Z,10.10
2022-12-25T11:27:30.044Z,10.10
2022-12-25T11:30:15.959Z,10.10
2022-12-25T11:32:49.372Z,10.10
2022-12-25T11:35:30.551Z,10.10
2022-12-25T11:38:01.385Z,10.10
2022-12-25T11:40:38.414Z,10.10
2022-12-25T11:43:18.349Z,10.10
2022-12-25T11:45:53.424Z,10.10
2022-12-25T11:48:27.484Z,10.10
2022-12-25T11:51:05.869Z,10.10
2022-12-25T11:53:47.586Z,10.10
2022-12-25T11:56:19.683Z,10.10
2022-12-25T11:58:56.726Z,10.20
2022-12-25T12:01:47.009Z,10.20
2022-12-25T12:04:27.442Z,10.30
2022-12-25T12:07:10.266Z,10.40
2022-12-25T12:09:51.128Z,10.40
2022-12-25T12:12:32.872Z,10.50
2022-12-25T12:15:11.948Z,10.60
2022-12-25T12:17:48.319Z,10.60
2022-12-25T12:20:31.913Z,10.60
2022-12-25T12:23:22.493Z,10.70
2022-12-25T12:26:14.369Z,10.70
2022-12-25T12:28:54.399Z,10.70
2022-12-25T12:31:31.241Z,10.70
2022-12-25T12:34:26.387Z,10.80
2022-12-25T12:36:58.906Z,10.80
2022-12-25T12:39:48.639Z,10.80
2022-12-25T12:42:37.841Z,10.80
2022-12-25T12:45:13.091Z,10.90
2022-12-25T12:47:46.848Z,10.90
2022-12-25T12:50:47.747Z,10.90
2022-12-25T12:53:22.666Z,10.90
2022-12-25T12:56:05.477Z,11.00
2022-12-25T12:58:59.155Z,11.00
2022-12-25T13:01:42.932Z,11.00
2022-12-25T13:04:42.474Z,10.90
2022-12-25T13:07:22.094Z,10.90
2022-12-25T13:10:17.949Z,10.90
2022-12-25T13:13:01.714Z,10.90
2022-12-25T13:15:38.347Z,10.90
2022-12-25T13:18:24.442Z,10.90
2022-12-25T13:21:02.677Z,10.90
2022-12-25T13:23:34.120Z,10.90
2022-12-25T13:26:06.273Z,10.90
2022-12-25T13:28:40.870Z,10.90
2022-12-25T13:31:28.484Z,10.80
2022-12-25T13:34:28.723Z,10.80
2022-12-25T13:39:43.837Z,10.80
2022-12-25T13:42:24.750Z,10.80
2022-12-25T13:44:58.211Z,10.80
2022-12-25T13:47:37.183Z,10.70
2022-12-25T13:50:20.841Z,10.70
2022-12-25T13:52:57.561Z,10.70
2022-12-25T13:55:30.774Z,10.80
2022-12-25T13:58:29.084Z,10.70
2022-12-25T14:03:46.813Z,10.70
2022-12-25T14:06:31.506Z,10.60
2022-12-25T14:09:03.177Z,10.60
2022-12-25T14:11:36.194Z,10.60
2022-12-25T14:14:10.685Z,10.60
2022-12-25T14:16:40.642Z,10.60
2022-12-25T14:19:24.218Z,10.60
2022-12-25T14:22:14.202Z,10.60
2022-12-25T14:24:59.356Z,10.60
2022-12-25T14:27:33.479Z,10.60
2022-12-25T14:30:05.787Z,10.50
2022-12-25T14:32:43.704Z,10.50
2022-12-25T14:35:23.590Z,10.50
2022-12-25T14:38:10.918Z,10.40
2022-12-25T14:40:44.172Z,10.40
2022-12-25T14:46:26.231Z,10.40
2022-12-25T14:49:01.785Z,10.40
2022-12-25T14:51:30.632Z,10.40
2022-12-25T14:54:06.432Z,10.40
2022-12-25T14:56:40.430Z,10.30
2022-12-25T14:59:18.311Z,10.20
2022-12-25T15:01:51.702Z,10.20
2022-12-25T15:04:22.668Z,10.20
2022-12-25T15:06:56.146Z,10.20
2022-12-25T15:09:28.113Z,10.20
2022-12-25T15:11:58.374Z,10.20
2022-12-25T15:14:30.565Z,10.20
2022-12-25T15:17:10.972Z,10.10
2022-12-25T15:19:53.288Z,10.00
2022-12-25T15:22:47.763Z,10.00
2022-12-25T15:25:27.874Z,10.00
2022-12-25T15:28:04.030Z,10.00
2022-12-25T15:30:43.280Z,10.10
2022-12-25T15:33:17.728Z,10.10
2022-12-25T15:35:51.261Z,10.10
2022-12-25T15:38:30.701Z,10.00
2022-12-25T15:41:12.679Z,10.00
2022-12-25T15:43:51.378Z,10.00
2022-12-25T15:46:29.552Z,9.90
2022-12-25T15:49:19.135Z,9.90
2022-12-25T15:51:54.517Z,9.90
2022-12-25T15:54:45.211Z,10.10
2022-12-25T15:57:34.328Z,10.00
2022-12-25T16:00:13.931Z,9.90
2022-12-25T16:02:44.907Z,9.80
2022-12-25T16:05:18.848Z,9.80
2022-12-25T16:07:54.619Z,9.80
2022-12-25T16:10:38.636Z,9.80
2022-12-25T16:13:34.827Z,9.80
2022-12-25T16:16:31.241Z,9.80
2022-12-25T16:19:12.702Z,9.80
2022-12-25T16:21:52.979Z,9.80
2022-12-25T16:24:27.012Z,9.80
2022-12-25T16:27:07.144Z,9.80
2022-12-25T16:29:42.856Z,9.80
2022-12-25T16:32:24.621Z,9.80
2022-12-25T16:35:23.302Z,9.80
2022-12-25T16:38:06.425Z,9.70
2022-12-25T16:40:43.833Z,9.80
2022-12-25T16:43:21.947Z,9.80
2022-12-25T16:45:54.023Z,9.80
2022-12-25T16:48:37.512Z,9.80
2022-12-25T16:51:12.139Z,9.80
2022-12-25T16:53:59.504Z,9.80
2022-12-25T16:56:36.109Z,9.80
2022-12-25T16:59:08.063Z,9.80
2022-12-25T17:01:43.655Z,9.70
2022-12-25T17:04:24.499Z,9.70
2022-12-25T17:06:56.597Z,9.70
2022-12-25T17:09:44.575Z,9.60
2022-12-25T17:12:23.915Z,9.70
2022-12-25T17:14:57.773Z,9.70
2022-12-25T17:17:31.852Z,9.70
2022-12-25T17:20:09.893Z,9.70
2022-12-25T17:22:42.082Z,9.70
2022-12-25T17:25:20.944Z,9.70
2022-12-25T17:28:10.225Z,9.70
2022-12-25T17:30:41.786Z,9.70
2022-12-25T17:36:05.881Z,9.80
2022-12-25T17:38:51.920Z,9.80
2022-12-25T17:41:27.003Z,9.80
2022-12-25T17:44:07.642Z,9.70
2022-12-25T17:46:42.585Z,9.80
2022-12-25T17:49:16.134Z,9.80
2022-12-25T17:52:03.528Z,9.80
2022-12-25T17:54:46.739Z,9.80
2022-12-25T17:57:27.916Z,9.80
2022-12-25T18:00:11.750Z,9.80
2022-12-25T18:02:50.267Z,9.80
2022-12-25T18:05:28.771Z,9.80
2022-12-25T18:07:57.431Z,9.80
2022-12-25T18:10:26.813Z,9.80
2022-12-25T18:15:57.616Z,9.90
2022-12-25T18:18:47.847Z,9.90
2022-12-25T18:24:06.492Z,10.00
2022-12-25T18:26:48.174Z,10.00
2022-12-25T18:29:22.760Z,10.10
2022-12-25T18:31:55.850Z,10.20
2022-12-25T18:35:01.658Z,10.30
2022-12-25T18:37:42.478Z,10.40
2022-12-25T18:40:38.282Z,10.40
2022-12-25T18:43:51.505Z,10.50
2022-12-25T18:46:21.215Z,10.50
2022-12-25T18:49:15.736Z,10.50
2022-12-25T18:51:47.738Z,10.50
2022-12-25T18:54:20.510Z,10.50
2022-12-25T18:56:54.464Z,10.60
2022-12-25T18:59:27.171Z,10.60
2022-12-25T19:01:59.937Z,10.60
2022-12-25T19:05:05.828Z,10.60
2022-12-25T19:07:49.980Z,10.60
2022-12-25T19:10:25.812Z,10.70
2022-12-25T19:13:07.290Z,10.70
2022-12-25T19:16:05.228Z,10.70
2022-12-25T19:18:46.610Z,10.80
2022-12-25T19:21:23.710Z,10.80
2022-12-25T19:24:09.957Z,10.80
2022-12-25T19:26:43.771Z,10.80
2022-12-25T19:29:15.071Z,10.80
2022-12-25T19:31:59.482Z,10.80
2022-12-25T19:34:34.925Z,10.80
2022-12-25T19:37:16.203Z,10.80
2022-12-25T19:39:49.255Z,10.90
2022-12-25T19:42:31.027Z,10.90
2022-12-25T19:45:06.749Z,10.90
2022-12-25T19:47:45.785Z,10.90
2022-12-25T19:50:29.976Z,10.90
2022-12-25T19:53:13.155Z,10.90
2022-12-25T19:55:54.584Z,11.00
2022-12-25T19:58:27.070Z,11.00
2022-12-25T20:01:06.876Z,11.00
2022-12-25T20:03:45.602Z,11.00
2022-12-25T20:06:35.585Z,11.00
2022-12-25T20:09:09.473Z,11.00
2022-12-25T20:11:59.612Z,11.00
2022-12-25T20:14:40.517Z,11.00
2022-12-25T20:17:31.059Z,11.00
2022-12-25T20:20:17.633Z,11.00
2022-12-25T20:22:46.761Z,11.00
2022-12-25T20:25:28.797Z,11.00
2022-12-25T20:28:20.529Z,11.00
2022-12-25T20:30:56.359Z,11.10
2022-12-25T20:36:46.761Z,11.10
2022-12-25T20:39:17.634Z,11.10
2022-12-25T20:42:10.419Z,11.10
2022-12-25T20:44:57.643Z,11.10
2022-12-25T20:47:40.076Z,11.10
2022-12-25T20:50:27.238Z,11.10
2022-12-25T20:53:21.951Z,11.10
2022-12-25T20:59:02.935Z,11.10
2022-12-25T21:01:40.939Z,11.10
2022-12-25T21:04:16.696Z,11.20
2022-12-25T21:06:48.051Z,11.20
2022-12-25T21:09:30.964Z,11.20
2022-12-25T21:12:03.267Z,11.20
2022-12-25T21:14:50.162Z,11.20
2022-12-25T21:17:39.119Z,11.20
2022-12-25T21:20:23.104Z,11.20
2022-12-25T21:23:20.348Z,11.30
2022-12-25T21:25:56.029Z,11.30
2022-12-25T21:31:57.150Z,11.30
2022-12-25T21:34:43.865Z,11.30
2022-12-25T21:37:38.752Z,11.30
2022-12-25T21:40:28.107Z,11.30
2022-12-25T21:43:01.187Z,11.30
2022-12-25T21:45:48.670Z,11.30
2022-12-25T21:48:18.946Z,11.30
2022-12-25T21:51:14.504Z,11.40
2022-12-25T21:53:54.995Z,11.40
2022-12-25T21:56:27.959Z,11.40
2022-12-25T21:59:02.972Z,11.40
2022-12-25T22:01:37.668Z,11.40
2022-12-25T22:04:22.641Z,11.40
2022-12-25T22:07:20.322Z,11.40
2022-12-25T22:10:14.029Z,11.40
2022-12-25T22:13:09.720Z,11.40
2022-12-25T22:15:57.468Z,11.40
2022-12-25T22:18:44.264Z,11.50
2022-12-25T22:21:26.190Z,11.50
2022-12-25T22:24:12.440Z,11.50
2022-12-25T22:26:52.906Z,11.50
2022-12-25T22:29:28.776Z,11.50
2022-12-25T22:32:00.763Z,11.50
2022-12-25T22:34:36.268Z,11.50
2022-12-25T22:37:36.702Z,11.50
2022-12-25T22:40:30.675Z,11.60
2022-12-25T22:43:19.003Z,11.50
2022-12-25T22:45:56.607Z,11.50
2022-12-25T22:48:37.097Z,11.50
2022-12-25T22:51:08.714Z,11.50
2022-12-25T22:53:45.463Z,11.30
2022-12-25T22:56:50.214Z,11.50
2022-12-25T22:59:49.933Z,11.50
2022-12-25T23:02:47.064Z,11.50
2022-12-25T23:08:20.779Z,11.40
2022-12-25T23:11:08.267Z,11.30
2022-12-25T23:14:01.582Z,11.30
2022-12-25T23:16:46.930Z,11.20
2022-12-25T23:20:00.552Z,11.20
2022-12-25T23:22:52.780Z,11.20
2022-12-25T23:28:52.278Z,11.10
2022-12-25T23:31:29.134Z,11.10
2022-12-25T23:34:08.591Z,11.00
2022-12-25T23:36:59.447Z,11.00
2022-12-25T23:39:46.006Z,11.00
2022-12-25T23:42:28.751Z,11.00
2022-12-25T23:44:59.942Z,11.00
2022-12-25T23:47:46.003Z,11.00
2022-12-25T23:50:26.704Z,11.00
2022-12-25T23:53:00.887Z,10.90
2022-12-25T23:55:40.739Z,10.90
2022-12-25T23:58:15.779Z,10.90
